sensor_id;sensor_type;location;lat;lon;timestamp;pressure;altitude;pressure_sealevel;temperature;humidity
62544;BME280;48597;49.030;1.822;2023-04-07T00:00:21;100926.41;;;19.51;41.71
62544;BME280;48597;49.030;1.822;2023-04-07T00:02:46;100928.47;;;19.51;41.76
62544;BME280;48597;49.030;1.822;2023-04-07T00:05:13;100924.81;;;19.50;41.75
62544;BME280;48597;49.030;1.822;2023-04-07T00:07:39;100928.47;;;19.51;41.71
62544;BME280;48597;49.030;1.822;2023-04-07T00:10:05;100936.25;;;19.50;41.78
62544;BME280;48597;49.030;1.822;2023-04-07T00:12:31;100932.56;;;19.50;41.80
62544;BME280;48597;49.030;1.822;2023-04-07T00:14:56;100928.91;;;19.49;41.79
62544;BME280;48597;49.030;1.822;2023-04-07T00:17:22;100930.13;;;19.48;41.81
62544;BME280;48597;49.030;1.822;2023-04-07T00:19:47;100919.97;;;19.47;41.87
62544;BME280;48597;49.030;1.822;2023-04-07T00:22:13;100919.16;;;19.47;41.85
62544;BME280;48597;49.030;1.822;2023-04-07T00:24:38;100919.97;;;19.47;41.72
62544;BME280;48597;49.030;1.822;2023-04-07T00:27:04;100915.50;;;19.46;41.83
62544;BME280;48597;49.030;1.822;2023-04-07T00:29:29;100911.84;;;19.46;41.83
62544;BME280;48597;49.030;1.822;2023-04-07T00:31:55;100914.69;;;19.46;41.90
62544;BME280;48597;49.030;1.822;2023-04-07T00:34:20;100908.19;;;19.45;41.60
62544;BME280;48597;49.030;1.822;2023-04-07T00:36:46;100908.19;;;19.45;41.90
62544;BME280;48597;49.030;1.822;2023-04-07T00:39:16;100913.09;;;19.45;41.97
62544;BME280;48597;49.030;1.822;2023-04-07T00:41:42;100907.38;;;19.45;42.11
62544;BME280;48597;49.030;1.822;2023-04-07T00:44:08;100897.19;;;19.44;41.88
62544;BME280;48597;49.030;1.822;2023-04-07T00:46:33;100913.09;;;19.45;42.12
62544;BME280;48597;49.030;1.822;2023-04-07T00:48:59;100912.28;;;19.44;41.97
62544;BME280;48597;49.030;1.822;2023-04-07T00:51:25;100902.09;;;19.43;42.08
62544;BME280;48597;49.030;1.822;2023-04-07T00:53:51;100898.44;;;19.43;42.08
62544;BME280;48597;49.030;1.822;2023-04-07T00:56:16;100889.84;;;19.43;42.17
62544;BME280;48597;49.030;1.822;2023-04-07T00:58:42;100903.34;;;19.42;42.14
62544;BME280;48597;49.030;1.822;2023-04-07T01:01:12;100899.25;;;19.43;42.16
62544;BME280;48597;49.030;1.822;2023-04-07T01:03:52;100905.41;;;19.42;41.93
62544;BME280;48597;49.030;1.822;2023-04-07T01:06:23;100898.44;;;19.43;41.99
62544;BME280;48597;49.030;1.822;2023-04-07T01:08:59;100896.38;;;19.43;42.13
62544;BME280;48597;49.030;1.822;2023-04-07T01:11:42;100907.81;;;19.43;42.04
62544;BME280;48597;49.030;1.822;2023-04-07T01:14:09;100900.50;;;19.42;41.90
62544;BME280;48597;49.030;1.822;2023-04-07T01:16:41;100909.44;;;19.44;41.80
62544;BME280;48597;49.030;1.822;2023-04-07T01:21:36;100900.03;;;19.44;41.83
62544;BME280;48597;49.030;1.822;2023-04-07T01:27:04;100908.19;;;19.45;41.68
62544;BME280;48597;49.030;1.822;2023-04-07T01:29:41;100910.22;;;19.45;41.61
62544;BME280;48597;49.030;1.822;2023-04-07T01:32:13;100916.75;;;19.45;41.64
62544;BME280;48597;49.030;1.822;2023-04-07T01:34:40;100920.06;;;19.44;41.59
62544;BME280;48597;49.030;1.822;2023-04-07T01:37:06;100908.97;;;19.46;41.69
62544;BME280;48597;49.030;1.822;2023-04-07T01:39:33;100915.50;;;19.46;41.82
62544;BME280;48597;49.030;1.822;2023-04-07T01:42:00;100913.44;;;19.47;41.69
62544;BME280;48597;49.030;1.822;2023-04-07T01:56:51;100924.41;;;19.48;41.76
62544;BME280;48597;49.030;1.822;2023-04-07T01:59:16;100925.25;;;19.49;41.68
62544;BME280;48597;49.030;1.822;2023-04-07T02:01:42;100929.72;;;19.50;41.84
62544;BME280;48597;49.030;1.822;2023-04-07T02:04:11;100935.00;;;19.51;42.28
62544;BME280;48597;49.030;1.822;2023-04-07T02:06:47;100931.69;;;19.53;41.82
62544;BME280;48597;49.030;1.822;2023-04-07T02:09:15;100928.81;;;19.53;41.88
62544;BME280;48597;49.030;1.822;2023-04-07T02:11:42;100930.44;;;19.54;41.91
62544;BME280;48597;49.030;1.822;2023-04-07T02:14:09;100932.84;;;19.55;41.88
62544;BME280;48597;49.030;1.822;2023-04-07T02:16:36;100935.28;;;19.57;41.89
62544;BME280;48597;49.030;1.822;2023-04-07T02:19:02;100935.28;;;19.57;41.85
62544;BME280;48597;49.030;1.822;2023-04-07T02:21:29;100931.97;;;19.58;41.98
62544;BME280;48597;49.030;1.822;2023-04-07T02:24:00;100939.31;;;19.59;41.94
62544;BME280;48597;49.030;1.822;2023-04-07T02:26:25;100923.38;;;19.58;41.69
62544;BME280;48597;49.030;1.822;2023-04-07T02:28:51;100925.00;;;19.59;41.87
62544;BME280;48597;49.030;1.822;2023-04-07T02:31:16;100933.09;;;19.61;41.88
62544;BME280;48597;49.030;1.822;2023-04-07T02:33:41;100924.53;;;19.61;41.96
62544;BME280;48597;49.030;1.822;2023-04-07T02:36:07;100929.81;;;19.62;42.05
62544;BME280;48597;49.030;1.822;2023-04-07T02:38:32;100930.59;;;19.63;42.01
62544;BME280;48597;49.030;1.822;2023-04-07T02:40:57;100922.84;;;19.63;42.01
62544;BME280;48597;49.030;1.822;2023-04-07T02:43:23;100928.09;;;19.65;41.91
62544;BME280;48597;49.030;1.822;2023-04-07T02:45:49;100923.19;;;19.66;41.84
62544;BME280;48597;49.030;1.822;2023-04-07T02:48:15;100924.00;;;19.66;41.89
62544;BME280;48597;49.030;1.822;2023-04-07T02:50:40;100922.75;;;19.67;41.93
62544;BME280;48597;49.030;1.822;2023-04-07T02:53:06;100919.44;;;19.69;41.90
62544;BME280;48597;49.030;1.822;2023-04-07T02:55:31;100922.31;;;19.69;41.79
62544;BME280;48597;49.030;1.822;2023-04-07T02:57:56;100919.44;;;19.69;41.87
62544;BME280;48597;49.030;1.822;2023-04-07T03:00:22;100915.34;;;19.70;41.95
62544;BME280;48597;49.030;1.822;2023-04-07T03:02:47;100922.66;;;19.71;41.87
62544;BME280;48597;49.030;1.822;2023-04-07T03:05:13;100921.41;;;19.72;41.89
62544;BME280;48597;49.030;1.822;2023-04-07T03:07:38;100917.31;;;19.73;41.88
62544;BME280;48597;49.030;1.822;2023-04-07T03:10:04;100922.53;;;19.74;41.93
62544;BME280;48597;49.030;1.822;2023-04-07T03:12:29;100919.69;;;19.74;41.88
62544;BME280;48597;49.030;1.822;2023-04-07T03:14:55;100933.53;;;19.76;41.94
62544;BME280;48597;49.030;1.822;2023-04-07T03:17:21;100930.69;;;19.76;41.82
62544;BME280;48597;49.030;1.822;2023-04-07T03:19:46;100932.28;;;19.77;41.86
62544;BME280;48597;49.030;1.822;2023-04-07T03:22:11;100937.56;;;19.78;41.80
62544;BME280;48597;49.030;1.822;2023-04-07T03:24:37;100926.13;;;19.78;41.90
62544;BME280;48597;49.030;1.822;2023-04-07T03:27:03;100928.53;;;19.80;41.84
62544;BME280;48597;49.030;1.822;2023-04-07T03:29:29;100930.16;;;19.81;41.92
62544;BME280;48597;49.030;1.822;2023-04-07T03:31:54;100928.09;;;19.81;41.86
62544;BME280;48597;49.030;1.822;2023-04-07T03:34:20;100933.38;;;19.83;41.85
62544;BME280;48597;49.030;1.822;2023-04-07T03:36:45;100932.13;;;19.84;41.85
62544;BME280;48597;49.030;1.822;2023-04-07T03:39:11;100926.41;;;19.84;41.90
62544;BME280;48597;49.030;1.822;2023-04-07T03:41:36;100930.88;;;19.85;41.81
62544;BME280;48597;49.030;1.822;2023-04-07T03:44:01;100936.13;;;19.86;41.87
62544;BME280;48597;49.030;1.822;2023-04-07T03:46:27;100937.72;;;19.87;41.84
62544;BME280;48597;49.030;1.822;2023-04-07T03:48:52;100931.19;;;19.87;41.81
62544;BME280;48597;49.030;1.822;2023-04-07T03:51:18;100932.81;;;19.88;41.79
62544;BME280;48597;49.030;1.822;2023-04-07T03:53:43;100937.28;;;19.89;41.90
62544;BME280;48597;49.030;1.822;2023-04-07T03:56:08;100938.09;;;19.89;41.72
62544;BME280;48597;49.030;1.822;2023-04-07T03:58:34;100938.09;;;19.89;41.82
62544;BME280;48597;49.030;1.822;2023-04-07T04:01:00;100933.16;;;19.90;41.72
62544;BME280;48597;49.030;1.822;2023-04-07T04:03:25;100936.03;;;19.90;41.74
62544;BME280;48597;49.030;1.822;2023-04-07T04:05:50;100937.63;;;19.91;41.76
62544;BME280;48597;49.030;1.822;2023-04-07T04:08:16;100930.66;;;19.92;41.80
62544;BME280;48597;49.030;1.822;2023-04-07T04:10:41;100936.38;;;19.92;41.72
62544;BME280;48597;49.030;1.822;2023-04-07T04:13:07;100940.06;;;19.92;41.74
62544;BME280;48597;49.030;1.822;2023-04-07T04:15:32;100936.75;;;19.94;41.60
62544;BME280;48597;49.030;1.822;2023-04-07T04:17:57;100943.28;;;19.94;41.83
62544;BME280;48597;49.030;1.822;2023-04-07T04:20:23;100948.19;;;19.94;41.65
62544;BME280;48597;49.030;1.822;2023-04-07T04:22:48;100940.41;;;19.94;41.77
62544;BME280;48597;49.030;1.822;2023-04-07T04:25:15;100944.88;;;19.95;41.60
62544;BME280;48597;49.030;1.822;2023-04-07T04:27:41;100942.03;;;19.95;41.67
62544;BME280;48597;49.030;1.822;2023-04-07T04:30:07;100944.88;;;19.95;41.59
62544;BME280;48597;49.030;1.822;2023-04-07T04:32:32;100942.03;;;19.95;41.48
62544;BME280;48597;49.030;1.822;2023-04-07T04:34:58;100944.44;;;19.97;41.33
62544;BME280;48597;49.030;1.822;2023-04-07T04:37:24;100951.41;;;19.96;41.54
62544;BME280;48597;49.030;1.822;2023-04-07T04:39:49;100953.03;;;19.97;41.55
62544;BME280;48597;49.030;1.822;2023-04-07T04:42:15;100955.88;;;19.97;41.38
62544;BME280;48597;49.030;1.822;2023-04-07T04:44:40;100950.97;;;19.97;41.65
62544;BME280;48597;49.030;1.822;2023-04-07T04:47:06;100958.75;;;19.97;41.43
62544;BME280;48597;49.030;1.822;2023-04-07T04:49:31;100953.81;;;19.97;41.50
62544;BME280;48597;49.030;1.822;2023-04-07T04:51:56;100954.63;;;19.98;41.58
62544;BME280;48597;49.030;1.822;2023-04-07T04:54:22;100955.44;;;19.98;41.56
62544;BME280;48597;49.030;1.822;2023-04-07T04:56:47;100961.97;;;19.99;41.52
62544;BME280;48597;49.030;1.822;2023-04-07T04:59:13;100960.34;;;19.98;41.43
62544;BME280;48597;49.030;1.822;2023-04-07T05:01:38;100963.22;;;19.98;41.54
62544;BME280;48597;49.030;1.822;2023-04-07T05:04:03;100968.47;;;19.99;41.49
62544;BME280;48597;49.030;1.822;2023-04-07T05:06:29;100959.09;;;19.99;41.46
62544;BME280;48597;49.030;1.822;2023-04-07T05:08:55;100968.47;;;19.99;41.48
62544;BME280;48597;49.030;1.822;2023-04-07T05:11:20;100972.13;;;20.00;41.40
62544;BME280;48597;49.030;1.822;2023-04-07T05:13:46;100972.94;;;20.01;41.39
62544;BME280;48597;49.030;1.822;2023-04-07T05:16:11;100973.75;;;20.01;41.43
62544;BME280;48597;49.030;1.822;2023-04-07T05:18:37;100975.00;;;20.00;41.43
62544;BME280;48597;49.030;1.822;2023-04-07T05:21:02;100972.13;;;20.00;41.33
62544;BME280;48597;49.030;1.822;2023-04-07T05:23:27;100983.13;;;20.02;41.41
62544;BME280;48597;49.030;1.822;2023-04-07T05:25:53;100979.47;;;20.01;41.44
62544;BME280;48597;49.030;1.822;2023-04-07T05:28:18;100977.41;;;20.02;41.43
62544;BME280;48597;49.030;1.822;2023-04-07T05:30:43;100978.22;;;20.02;41.42
62544;BME280;48597;49.030;1.822;2023-04-07T05:33:09;100980.25;;;20.02;41.27
62544;BME280;48597;49.030;1.822;2023-04-07T05:35:35;100982.31;;;20.01;41.18
62544;BME280;48597;49.030;1.822;2023-04-07T05:38:00;100981.06;;;20.02;41.34
62544;BME280;48597;49.030;1.822;2023-04-07T05:40:26;100979.47;;;20.01;41.25
62544;BME280;48597;49.030;1.822;2023-04-07T05:42:51;100984.72;;;20.03;41.30
62544;BME280;48597;49.030;1.822;2023-04-07T05:45:16;100983.94;;;20.02;41.39
62544;BME280;48597;49.030;1.822;2023-04-07T05:47:42;100986.78;;;20.02;41.32
62544;BME280;48597;49.030;1.822;2023-04-07T05:50:08;100989.22;;;20.04;41.25
62544;BME280;48597;49.030;1.822;2023-04-07T05:52:34;100994.13;;;20.03;41.33
62544;BME280;48597;49.030;1.822;2023-04-07T05:54:59;100994.94;;;20.04;41.63
62544;BME280;48597;49.030;1.822;2023-04-07T05:57:26;101004.31;;;20.04;41.31
62544;BME280;48597;49.030;1.822;2023-04-07T05:59:52;101001.47;;;20.04;41.16
62544;BME280;48597;49.030;1.822;2023-04-07T06:02:18;101001.47;;;20.04;41.28
62544;BME280;48597;49.030;1.822;2023-04-07T06:04:43;101003.06;;;20.05;41.33
62544;BME280;48597;49.030;1.822;2023-04-07T06:07:08;101000.22;;;20.05;41.30
62544;BME280;48597;49.030;1.822;2023-04-07T06:09:34;101011.22;;;20.07;41.33
62544;BME280;48597;49.030;1.822;2023-04-07T06:11:59;101004.69;;;20.06;41.31
62544;BME280;48597;49.030;1.822;2023-04-07T06:14:25;101008.34;;;20.07;41.27
62544;BME280;48597;49.030;1.822;2023-04-07T06:16:51;101009.16;;;20.07;41.19
62544;BME280;48597;49.030;1.822;2023-04-07T06:19:16;101004.69;;;20.06;41.21
62544;BME280;48597;49.030;1.822;2023-04-07T06:21:42;101014.88;;;20.07;41.04
62544;BME280;48597;49.030;1.822;2023-04-07T06:24:07;101011.22;;;20.07;41.12
62544;BME280;48597;49.030;1.822;2023-04-07T06:26:33;101015.69;;;20.08;41.20
62544;BME280;48597;49.030;1.822;2023-04-07T06:28:58;101018.53;;;20.08;41.02
62544;BME280;48597;49.030;1.822;2023-04-07T06:31:24;101025.88;;;20.09;41.05
62544;BME280;48597;49.030;1.822;2023-04-07T06:33:50;101023.00;;;20.09;41.17
62544;BME280;48597;49.030;1.822;2023-04-07T06:36:15;101026.69;;;20.09;41.17
62544;BME280;48597;49.030;1.822;2023-04-07T06:38:40;101028.72;;;20.09;41.10
62544;BME280;48597;49.030;1.822;2023-04-07T06:41:06;101032.41;;;20.09;41.08
62544;BME280;48597;49.030;1.822;2023-04-07T06:43:32;101043.03;;;20.09;41.10
62544;BME280;48597;49.030;1.822;2023-04-07T06:45:57;101036.06;;;20.10;41.07
62544;BME280;48597;49.030;1.822;2023-04-07T06:48:23;101035.25;;;20.09;41.26
62544;BME280;48597;49.030;1.822;2023-04-07T06:50:48;101042.59;;;20.10;40.96
62544;BME280;48597;49.030;1.822;2023-04-07T06:53:14;101039.75;;;20.10;41.06
62544;BME280;48597;49.030;1.822;2023-04-07T06:55:40;101032.75;;;20.11;41.15
62544;BME280;48597;49.030;1.822;2023-04-07T06:58:05;101047.06;;;20.11;41.27
62544;BME280;48597;49.030;1.822;2023-04-07T07:00:31;101038.50;;;20.11;40.97
62544;BME280;48597;49.030;1.822;2023-04-07T07:02:56;101047.88;;;20.12;40.86
62544;BME280;48597;49.030;1.822;2023-04-07T07:05:22;101040.09;;;20.12;40.97
62544;BME280;48597;49.030;1.822;2023-04-07T07:07:48;101045.03;;;20.12;40.85
62544;BME280;48597;49.030;1.822;2023-04-07T07:10:13;101048.69;;;20.12;41.07
62544;BME280;48597;49.030;1.822;2023-04-07T07:12:38;101056.00;;;20.13;41.01
62544;BME280;48597;49.030;1.822;2023-04-07T07:15:04;101061.72;;;20.13;41.14
62544;BME280;48597;49.030;1.822;2023-04-07T07:17:30;101056.78;;;20.14;41.13
62544;BME280;48597;49.030;1.822;2023-04-07T07:19:55;101065.38;;;20.14;41.32
62544;BME280;48597;49.030;1.822;2023-04-07T07:22:21;101062.06;;;20.15;41.41
62544;BME280;48597;49.030;1.822;2023-04-07T07:24:46;101067.78;;;20.15;40.99
62544;BME280;48597;49.030;1.822;2023-04-07T07:27:12;101067.78;;;20.15;40.99
62544;BME280;48597;49.030;1.822;2023-04-07T07:29:37;101072.28;;;20.16;41.25
62544;BME280;48597;49.030;1.822;2023-04-07T07:32:02;101071.03;;;20.17;41.19
62544;BME280;48597;49.030;1.822;2023-04-07T07:34:28;101076.75;;;20.17;40.94
62544;BME280;48597;49.030;1.822;2023-04-07T07:36:53;101067.34;;;20.17;40.97
62544;BME280;48597;49.030;1.822;2023-04-07T07:39:19;101071.03;;;20.17;41.20
62544;BME280;48597;49.030;1.822;2023-04-07T07:41:44;101077.91;;;20.20;41.31
62544;BME280;48597;49.030;1.822;2023-04-07T07:44:10;101073.00;;;20.20;41.12
62544;BME280;48597;49.030;1.822;2023-04-07T07:46:36;101081.56;;;20.20;41.17
62544;BME280;48597;49.030;1.822;2023-04-07T07:49:01;101073.00;;;20.20;41.05
62544;BME280;48597;49.030;1.822;2023-04-07T07:51:27;101083.19;;;20.21;41.08
62544;BME280;48597;49.030;1.822;2023-04-07T07:53:52;101074.16;;;20.23;41.19
62544;BME280;48597;49.030;1.822;2023-04-07T07:56:17;101083.56;;;20.23;41.17
62544;BME280;48597;49.030;1.822;2023-04-07T07:58:43;101082.31;;;20.24;41.05
62544;BME280;48597;49.030;1.822;2023-04-07T08:01:08;101086.75;;;20.25;41.06
62544;BME280;48597;49.030;1.822;2023-04-07T08:03:34;101089.59;;;20.25;41.03
62544;BME280;48597;49.030;1.822;2023-04-07T08:05:59;101090.88;;;20.24;41.21
62544;BME280;48597;49.030;1.822;2023-04-07T08:08:25;101091.22;;;20.26;41.08
62544;BME280;48597;49.030;1.822;2023-04-07T08:10:50;101099.38;;;20.28;41.17
62544;BME280;48597;49.030;1.822;2023-04-07T08:13:16;101099.00;;;20.26;40.80
62544;BME280;48597;49.030;1.822;2023-04-07T08:15:41;101100.63;;;20.27;41.08
62544;BME280;48597;49.030;1.822;2023-04-07T08:18:07;101093.28;;;20.26;40.95
62544;BME280;48597;49.030;1.822;2023-04-07T08:20:32;101095.69;;;20.27;40.75
62544;BME280;48597;49.030;1.822;2023-04-07T08:22:58;101095.25;;;20.29;40.87
62544;BME280;48597;49.030;1.822;2023-04-07T08:25:26;101100.16;;;20.28;40.74
62544;BME280;48597;49.030;1.822;2023-04-07T08:27:51;101093.19;;;20.29;40.54
62544;BME280;48597;49.030;1.822;2023-04-07T08:30:17;101102.59;;;20.30;41.03
62544;BME280;48597;49.030;1.822;2023-04-07T08:32:43;101098.47;;;20.31;40.95
62544;BME280;48597;49.030;1.822;2023-04-07T08:35:09;101099.72;;;20.30;41.02
62544;BME280;48597;49.030;1.822;2023-04-07T08:37:36;101103.31;;;20.34;40.87
62544;BME280;48597;49.030;1.822;2023-04-07T08:40:02;101101.69;;;20.33;41.19
62544;BME280;48597;49.030;1.822;2023-04-07T08:42:30;101106.63;;;20.32;40.68
62544;BME280;48597;49.030;1.822;2023-04-07T08:44:57;101105.38;;;20.33;40.85
62544;BME280;48597;49.030;1.822;2023-04-07T08:47:24;101109.84;;;20.34;41.06
62544;BME280;48597;49.030;1.822;2023-04-07T08:49:52;101104.13;;;20.34;41.21
62544;BME280;48597;49.030;1.822;2023-04-07T08:52:21;101104.91;;;20.35;40.99
62544;BME280;48597;49.030;1.822;2023-04-07T08:54:48;101105.38;;;20.33;41.15
62544;BME280;48597;49.030;1.822;2023-04-07T08:57:14;101106.16;;;20.34;41.01
62544;BME280;48597;49.030;1.822;2023-04-07T08:59:41;101111.47;;;20.36;40.91
62544;BME280;48597;49.030;1.822;2023-04-07T09:02:09;101116.38;;;20.35;41.08
62544;BME280;48597;49.030;1.822;2023-04-07T09:04:35;101122.09;;;20.35;40.83
62544;BME280;48597;49.030;1.822;2023-04-07T09:07:00;101118.44;;;20.34;41.21
62544;BME280;48597;49.030;1.822;2023-04-07T09:09:26;101114.75;;;20.34;41.07
62544;BME280;48597;49.030;1.822;2023-04-07T09:11:51;101123.34;;;20.34;41.04
62544;BME280;48597;49.030;1.822;2023-04-07T09:14:17;101118.44;;;20.34;40.94
62544;BME280;48597;49.030;1.822;2023-04-07T09:16:45;101122.53;;;20.33;40.87
62544;BME280;48597;49.030;1.822;2023-04-07T09:19:11;101114.75;;;20.34;40.85
62544;BME280;48597;49.030;1.822;2023-04-07T09:21:47;101124.16;;;20.34;40.78
62544;BME280;48597;49.030;1.822;2023-04-07T09:24:40;101120.47;;;20.34;40.53
62544;BME280;48597;49.030;1.822;2023-04-07T09:27:17;101122.53;;;20.33;40.86
62544;BME280;48597;49.030;1.822;2023-04-07T09:29:45;101127.47;;;20.33;40.78
62544;BME280;48597;49.030;1.822;2023-04-07T09:32:11;101124.59;;;20.33;40.80
62544;BME280;48597;49.030;1.822;2023-04-07T09:34:40;101126.66;;;20.32;41.02
62544;BME280;48597;49.030;1.822;2023-04-07T09:37:06;101131.13;;;20.33;40.94
62544;BME280;48597;49.030;1.822;2023-04-07T09:39:47;101124.16;;;20.34;40.73
62544;BME280;48597;49.030;1.822;2023-04-07T09:42:13;101134.00;;;20.33;40.88
62544;BME280;48597;49.030;1.822;2023-04-07T09:44:39;101136.06;;;20.33;40.79
62544;BME280;48597;49.030;1.822;2023-04-07T09:47:07;101131.56;;;20.32;40.92
62544;BME280;48597;49.030;1.822;2023-04-07T09:49:47;101127.47;;;20.33;40.78
62544;BME280;48597;49.030;1.822;2023-04-07T09:52:13;101126.66;;;20.32;40.88
62544;BME280;48597;49.030;1.822;2023-04-07T09:54:40;101129.53;;;20.32;41.05
62544;BME280;48597;49.030;1.822;2023-04-07T09:57:07;101135.25;;;20.32;40.89
62544;BME280;48597;49.030;1.822;2023-04-07T09:59:35;101140.16;;;20.32;40.80
62544;BME280;48597;49.030;1.822;2023-04-07T10:02:01;101137.75;;;20.30;40.96
62544;BME280;48597;49.030;1.822;2023-04-07T10:04:27;101139.34;;;20.31;40.89
62544;BME280;48597;49.030;1.822;2023-04-07T10:06:53;101143.91;;;20.29;40.86
62544;BME280;48597;49.030;1.822;2023-04-07T10:09:22;101134.88;;;20.30;40.77
62544;BME280;48597;49.030;1.822;2023-04-07T10:11:49;101129.16;;;20.30;40.86
62544;BME280;48597;49.030;1.822;2023-04-07T10:14:15;101133.28;;;20.29;40.71
62544;BME280;48597;49.030;1.822;2023-04-07T10:16:42;101128.78;;;20.28;40.79
62544;BME280;48597;49.030;1.822;2023-04-07T10:19:08;101146.41;;;20.27;40.75
62544;BME280;48597;49.030;1.822;2023-04-07T10:21:39;101148.47;;;20.26;40.71
62544;BME280;48597;49.030;1.822;2023-04-07T10:26:55;101134.16;;;20.26;40.90
62544;BME280;48597;49.030;1.822;2023-04-07T10:29:23;101131.28;;;20.26;40.72
62544;BME280;48597;49.030;1.822;2023-04-07T10:31:49;101131.28;;;20.26;40.89
62544;BME280;48597;49.030;1.822;2023-04-07T10:34:15;101134.63;;;20.25;40.81
62544;BME280;48597;49.030;1.822;2023-04-07T10:37:12;101136.69;;;20.24;40.39
62544;BME280;48597;49.030;1.822;2023-04-07T10:39:39;101129.34;;;20.23;40.79
62544;BME280;48597;49.030;1.822;2023-04-07T10:42:05;101125.69;;;20.23;40.72
62544;BME280;48597;49.030;1.822;2023-04-07T10:44:50;101126.50;;;20.23;40.53
62544;BME280;48597;49.030;1.822;2023-04-07T10:47:17;101123.25;;;20.21;40.82
62544;BME280;48597;49.030;1.822;2023-04-07T10:50:20;101124.50;;;20.20;40.59
62544;BME280;48597;49.030;1.822;2023-04-07T10:52:47;101127.38;;;20.20;40.79
62544;BME280;48597;49.030;1.822;2023-04-07T11:00:41;101127.81;;;20.19;40.73
62544;BME280;48597;49.030;1.822;2023-04-07T11:03:11;101126.56;;;20.20;40.66
62544;BME280;48597;49.030;1.822;2023-04-07T11:05:38;101134.78;;;20.18;40.77
62544;BME280;48597;49.030;1.822;2023-04-07T11:08:04;101123.34;;;20.18;40.80
62544;BME280;48597;49.030;1.822;2023-04-07T11:10:31;101123.34;;;20.18;40.89
62544;BME280;48597;49.030;1.822;2023-04-07T11:12:58;101120.03;;;20.19;40.67
62544;BME280;48597;49.030;1.822;2023-04-07T11:15:24;101112.69;;;20.18;40.68
62544;BME280;48597;49.030;1.822;2023-04-07T11:18:18;101117.63;;;20.18;40.39
62544;BME280;48597;49.030;1.822;2023-04-07T11:20:49;101114.75;;;20.18;40.75
62544;BME280;48597;49.030;1.822;2023-04-07T11:23:16;101118.06;;;20.16;40.96
62544;BME280;48597;49.030;1.822;2023-04-07T11:25:50;101120.91;;;20.16;40.77
62544;BME280;48597;49.030;1.822;2023-04-07T11:28:17;101117.25;;;20.16;40.65
62544;BME280;48597;49.030;1.822;2023-04-07T11:30:48;101115.19;;;20.16;40.77
62544;BME280;48597;49.030;1.822;2023-04-07T11:33:18;101124.34;;;20.11;40.76
62544;BME280;48597;49.030;1.822;2023-04-07T11:35:51;101118.13;;;20.13;40.74
62544;BME280;48597;49.030;1.822;2023-04-07T11:38:18;101119.75;;;20.14;40.89
62544;BME280;48597;49.030;1.822;2023-04-07T11:40:45;101127.53;;;20.13;40.75
62544;BME280;48597;49.030;1.822;2023-04-07T11:43:24;101122.63;;;20.14;40.66
62544;BME280;48597;49.030;1.822;2023-04-07T11:46:13;101118.13;;;20.13;40.68
62544;BME280;48597;49.030;1.822;2023-04-07T11:48:41;101114.50;;;20.12;40.92
62544;BME280;48597;49.030;1.822;2023-04-07T11:51:18;101121.00;;;20.13;40.74
62544;BME280;48597;49.030;1.822;2023-04-07T11:53:44;101133.72;;;20.12;40.74
62544;BME280;48597;49.030;1.822;2023-04-07T11:56:14;101128.00;;;20.12;40.88
62544;BME280;48597;49.030;1.822;2023-04-07T11:58:53;101132.94;;;20.11;40.68
62544;BME280;48597;49.030;1.822;2023-04-07T12:01:20;101129.69;;;20.09;40.94
62544;BME280;48597;49.030;1.822;2023-04-07T12:03:59;101132.94;;;20.11;40.68
62544;BME280;48597;49.030;1.822;2023-04-07T12:06:27;101132.56;;;20.09;40.80
62544;BME280;48597;49.030;1.822;2023-04-07T12:08:53;101136.22;;;20.10;40.75
62544;BME280;48597;49.030;1.822;2023-04-07T12:11:18;101140.34;;;20.09;40.86
62544;BME280;48597;49.030;1.822;2023-04-07T12:13:44;101132.56;;;20.09;40.80
62544;BME280;48597;49.030;1.822;2023-04-07T12:16:09;101136.66;;;20.08;40.95
62544;BME280;48597;49.030;1.822;2023-04-07T12:18:34;101127.28;;;20.08;40.95
62544;BME280;48597;49.030;1.822;2023-04-07T12:21:00;101130.16;;;20.08;40.86
62544;BME280;48597;49.030;1.822;2023-04-07T12:23:26;101130.16;;;20.08;40.91
62544;BME280;48597;49.030;1.822;2023-04-07T12:25:51;101135.06;;;20.07;40.86
62544;BME280;48597;49.030;1.822;2023-04-07T12:28:17;101117.88;;;20.07;40.89
62544;BME280;48597;49.030;1.822;2023-04-07T12:30:42;101115.03;;;20.07;40.81
62544;BME280;48597;49.030;1.822;2023-04-07T12:33:08;101108.50;;;20.07;40.72
62544;BME280;48597;49.030;1.822;2023-04-07T12:35:34;101099.91;;;20.07;41.00
62544;BME280;48597;49.030;1.822;2023-04-07T12:37:59;101115.47;;;20.06;40.94
62544;BME280;48597;49.030;1.822;2023-04-07T12:40:25;101108.50;;;20.07;40.94
62544;BME280;48597;49.030;1.822;2023-04-07T12:42:51;101113.06;;;20.04;40.99
62544;BME280;48597;49.030;1.822;2023-04-07T12:45:16;101114.66;;;20.05;41.07
62544;BME280;48597;49.030;1.822;2023-04-07T12:47:43;101111.81;;;20.05;40.93
62544;BME280;48597;49.030;1.822;2023-04-07T12:50:09;101113.84;;;20.05;40.97
62544;BME280;48597;49.030;1.822;2023-04-07T12:52:34;101118.78;;;20.04;41.04
62544;BME280;48597;49.030;1.822;2023-04-07T12:55:00;101123.69;;;20.04;40.96
62544;BME280;48597;49.030;1.822;2023-04-07T12:57:25;101120.84;;;20.04;40.99
62544;BME280;48597;49.030;1.822;2023-04-07T12:59:51;101119.22;;;20.03;40.91
62544;BME280;48597;49.030;1.822;2023-04-07T13:02:17;101119.22;;;20.03;40.95
62544;BME280;48597;49.030;1.822;2023-04-07T13:04:44;101115.56;;;20.02;40.96
62544;BME280;48597;49.030;1.822;2023-04-07T13:07:12;101108.22;;;20.01;41.30
62544;BME280;48597;49.030;1.822;2023-04-07T13:09:38;101109.03;;;20.02;41.09
62544;BME280;48597;49.030;1.822;2023-04-07T13:12:04;101113.94;;;20.01;41.01
62544;BME280;48597;49.030;1.822;2023-04-07T13:14:29;101106.59;;;20.00;41.01